FOON/MVB METAR and TAF weather

Enter ICAO airport designator
Station Type Date Time Source
FOON METAR 2019/06/26 18:00 UTC NOAA

FOON 261800Z 07003KT 8000 BKN013 OVC026 24/22 Q1015


Station Type Date Time Source
FOON Decoded METAR 2019/06/26 18:00 UTC NOAA

Franceville / Mvengue, Gabon (FOON) 01-39S 013-26E
Jun 26, 2019 - 02:00 PM EDT / 2019.06.26 1800 UTC
Wind: from the ENE (070 degrees) at 3 MPH (3 KT):0
Visibility: 4 mile(s):0
Sky conditions: overcast
Temperature: 75 F (24 C)
Dew Point: 71 F (22 C)
Relative Humidity: 88%
Pressure (altimeter): 29.97 in. Hg (1015 hPa)
ob: FOON 261800Z 07003KT 8000 BKN013 OVC026 24/22 Q1015
cycle: 18

Station Type Date Time Source
FOON TAF 2012/02/17 18:21 UTC NOAA

TAF TAF FOON 151600Z 1518/1618 20004KT 9999 BKN006
TEMPO 1603/1607 0200 FG OVC002
BECMG 1612/1614 TS SCT015 FEW020CB BKN030

Example: see airport list